• Join FlightAware (Why Join?)
  • Login
  • US Flag 
04:17AM EDT


 

Airport Tracker/Info


-or-


 

Live Flight TrackerFlight Track Log ✈ AAL2460 ✈ 24-Jun-2013 ✈ KLAX - KDFW

Flight Track Log - Related Links

Times and Time Zones

All times are in EDT time to prevent confusion due to time zone crossing. See the AAL2460 flight status page for this flight to view local times or setup timezone preferences in your user account.

Time Position Orientation Groundspeed Altitude Reporting Facility
EDT Latitude Longitude Course Direction KTS MPH feet Rate Location/Type
07:51PM 33.9333 -118.4333 90° East 165 190 1,800  Level Southern California TRACON
07:52PM 33.9000 -118.4833 231° Southwest 245 282 3,400 2,220 Climbing Southern California TRACON
07:53PM 33.7667 -118.0174 90° East  Level FlightAware Approximate
07:53PM 33.8333 -118.5500 220° Southwest 273 314 6,300  Level Southern California TRACON
07:54PM 33.7667 -117.8682 90° East  Level FlightAware Approximate
07:54PM 33.7306 -118.5272 170° South 296 341 9,400  Level Los Angeles Center
07:55PM 33.7456 -117.7223 97° East  Level FlightAware Approximate
07:55PM 33.6817 -118.4506 127° Southeast 326 375 10,900  Level Los Angeles Center
07:56PM 33.7333 -117.5740 90° East  Level FlightAware Approximate
07:57PM 33.6797 -118.3367 91° East 349 402 12,400  Level Los Angeles Center
07:58PM 33.6733 -118.2181 94° East 365 420 14,500 2,220 Climbing Los Angeles Center
07:59PM 33.6722 -118.0581 90° East 403 464 17,000 2,280 Climbing Los Angeles Center
08:00PM 33.6708 -117.9175 91° East 419 482 19,300 2,040 Climbing Los Angeles Center
08:01PM 33.6678 -117.7717 91° East 436 502 21,300 1,680 Climbing Los Angeles Center
08:02PM 33.6647 -117.6231 91° East 444 511 22,800 1,380 Climbing Los Angeles Center
08:03PM 33.6617 -117.4697 91° East 459 528 24,200 1,200 Climbing Los Angeles Center
08:04PM 33.6583 -117.3139 91° East 468 539 25,400 1,320 Climbing Los Angeles Center
08:05PM 33.6542 -117.1219 91° East 479 551 27,000 1,560 Climbing Los Angeles Center
08:06PM 33.6494 -116.9592 92° East 489 563 28,700 1,500 Climbing Los Angeles Center
08:07PM 33.6456 -116.8025 92° East 496 571 30,100 1,500 Climbing Los Angeles Center
08:08PM 33.6411 -116.6314 92° East 509 586 31,800 1,980 Climbing Los Angeles Center
08:09PM 33.6358 -116.4297 92° East 504 580 34,200 1,980 Climbing Los Angeles Center
08:10PM 33.6314 -116.2658 92° East 494 568 36,000 1,140 Climbing Los Angeles Center
08:11PM 33.6372 -116.0686 88° East 489 563 36,900 420 Climbing Los Angeles Center
08:12PM 33.6575 -115.9072 81° East 488 562 37,000  Climbing Los Angeles Center
08:13PM 33.6750 -115.7508 82° East 476 548 36,900  Descending Los Angeles Center
08:14PM 33.6939 -115.5933 82° East 475 547 37,000  Climbing Los Angeles Center
08:15PM 33.7100 -115.4361 83° East 475 547 37,000  Level Los Angeles Center
08:16PM 33.7325 -115.2503 82° East 469 540 37,000  Level Los Angeles Center
08:17PM 33.7489 -115.0931 83° East 474 545 37,000  Level Los Angeles Center
08:18PM 33.7667 -114.9347 82° East 478 550 37,000  Level Los Angeles Center
08:19PM 33.7833 -114.7767 83° East 479 551 37,000  Level Los Angeles Center
08:20PM 33.8011 -114.6181 82° East 480 552 37,000  Level Los Angeles Center
08:21PM 33.8164 -114.4583 83° East 482 555 37,000  Level Los Angeles Center
08:23PM 33.8369 -114.2667 83° East 481 554 37,000  Level Los Angeles Center
08:24PM 33.8542 -114.1072 83° East 481 554 37,000  Level Los Angeles Center
08:25PM 33.8722 -113.9442 82° East 489 563 37,000  Level Los Angeles Center
08:26PM 33.8883 -113.7825 83° East 489 563 37,000  Level Los Angeles Center
08:27PM 33.9039 -113.6258 83° East 494 568 37,000  Level Los Angeles Center
08:28PM 33.9197 -113.4658 83° East 485 558 37,000  Level Los Angeles Center
08:29PM 33.9403 -113.2500 83° East 489 563 37,000  Level Albuquerque Center
08:30PM 33.9567 -113.0875 83° East 490 564 37,000  Level Albuquerque Center
08:31PM 33.9722 -112.9272 83° East 485 558 37,000  Level Albuquerque Center
08:32PM 33.9883 -112.7650 83° East 488 562 37,000  Level Albuquerque Center
08:33PM 34.0069 -112.5697 83° East 489 563 37,000  Level Albuquerque Center
08:34PM 34.0219 -112.4078 84° East 490 564 37,000  Level Albuquerque Center
08:35PM 34.0369 -112.2442 84° East 491 565 37,000  Level Albuquerque Center
08:36PM 34.0517 -112.0800 84° East 491 565 37,000  Level Albuquerque Center
08:37PM 34.0667 -111.9033 84° East 493 567 37,000  Level Albuquerque Center
08:38PM 34.0797 -111.7397 84° East 492 566 37,000  Level Albuquerque Center
08:39PM 34.0944 -111.5781 84° East 489 563 37,000  Level Albuquerque Center
08:40PM 34.1075 -111.4150 84° East 488 562 37,000  Level Albuquerque Center
08:41PM 34.1206 -111.2533 84° East 486 559 37,000  Level Albuquerque Center
08:42PM 34.1339 -111.0919 84° East 484 557 37,000  Level Albuquerque Center
08:43PM 34.1469 -110.9319 84° East 482 555 37,000  Level Albuquerque Center
08:44PM 34.1581 -110.7722 85° East 480 552 37,000  Level Albuquerque Center
08:45PM 34.1725 -110.5839 86° East 479 551 37,000  Level Albuquerque Center
08:46PM 34.1685 -110.5935 86° East  Level FlightAware Approximate
08:46PM 34.1836 -110.4256 85° East 478 550 37,000  Level Albuquerque Center
08:47PM 34.1958 -110.2639 85° East 484 557 37,000  Level Albuquerque Center
08:48PM 34.2075 -110.1039 85° East 483 556 37,000  Level Albuquerque Center
08:49PM 34.2211 -109.9144 85° East 483 556 37,000  Level Albuquerque Center
08:50PM 34.2325 -109.7600 85° East 483 556 37,000  Level Albuquerque Center
08:51PM 34.2428 -109.6064 85° East 482 555 37,000  Level Albuquerque Center
08:53PM 34.2553 -109.4297 85° East 483 556 37,000  Level Albuquerque Center
08:54PM 34.2639 -109.2689 86° East 483 556 37,000  Level Albuquerque Center
08:55PM 34.2742 -109.1092 86° East 482 555 37,000  Level Albuquerque Center
08:56PM 34.2831 -108.9497 86° East 480 552 37,000  Level Albuquerque Center
08:57PM 34.2925 -108.7906 86° East 479 551 37,000  Level Albuquerque Center
08:58PM 34.3036 -108.5994 86° East 479 551 37,000  Level Albuquerque Center
08:59PM 34.3128 -108.4514 86° East 478 550 37,000  Level Albuquerque Center
09:00PM 34.3208 -108.2914 86° East 478 550 37,000  Level Albuquerque Center
09:01PM 34.3308 -108.1331 86° East 475 547 37,000  Level Albuquerque Center
09:02PM 34.3383 -107.9736 87° East 477 549 37,000  Level Albuquerque Center
09:03PM 34.3497 -107.7836 86° East 475 547 37,000  Level Albuquerque Center
09:04PM 34.3575 -107.6228 87° East 478 550 37,000  Level Albuquerque Center
09:05PM 34.3664 -107.4628 86° East 480 552 37,000  Level Albuquerque Center
09:06PM 34.3750 -107.3014 86° East 482 555 37,000  Level Albuquerque Center
09:07PM 34.3833 -107.1419 86° East 480 552 37,000  Level Albuquerque Center
09:08PM 34.3911 -106.9819 87° East 479 551 37,000  Level Albuquerque Center
09:09PM 34.3983 -106.8189 87° East 485 558 37,000  Level Albuquerque Center
09:10PM 34.4053 -106.6300 87° East 476 548 37,000  Level Albuquerque Center
09:11PM 34.4125 -106.4703 87° East 477 549 37,000  Level Albuquerque Center
09:12PM 34.4189 -106.3122 87° East 474 545 37,000  Level Albuquerque Center
09:13PM 34.4242 -106.1528 88° East 468 539 37,000  Level Albuquerque Center
09:14PM 34.4292 -105.9911 88° East 474 545 37,000  Level Albuquerque Center
09:15PM 34.4344 -105.8308 88° East 474 545 37,000  Level Albuquerque Center
09:16PM 34.4408 -105.6686 87° East 478 550 37,000  Level Albuquerque Center
09:17PM 34.4461 -105.4781 88° East 481 554 37,000  Level Albuquerque Center
09:18PM 34.4500 -105.3153 88° East 482 555 37,000  Level Albuquerque Center
09:19PM 34.4544 -105.1511 88° East 484 557 37,000  Level Albuquerque Center
09:20PM 34.4589 -104.9869 88° East 486 559 37,000  Level Albuquerque Center
09:21PM 34.4644 -104.8236 88° East 484 557 37,000  Level Albuquerque Center
09:22PM 34.4669 -104.6581 89° East 487 560 37,000  Level Albuquerque Center
09:23PM 34.4711 -104.4933 88° East 487 560 37,000  Level Albuquerque Center
09:24PM 34.4742 -104.3286 89° East 488 562 37,000  Level Albuquerque Center
09:25PM 34.4781 -104.1628 88° East 489 563 37,000  Level Albuquerque Center
09:26PM 34.4814 -103.9706 89° East 489 563 37,000  Level Albuquerque Center
09:27PM 34.4796 -103.9883 89° East  Level FlightAware Approximate
09:27PM 34.4847 -103.8064 89° East 487 560 37,000  Level Albuquerque Center
09:30PM 34.4925 -103.3178 89° East 480 552 37,000  Level Albuquerque Center
09:31PM 34.4939 -103.1569 89° East 477 549 37,000  Level Albuquerque Center
09:33PM 34.4953 -102.9919 89° East 476 548 37,000  Level Albuquerque Center
09:34PM 34.4947 -102.8347 90° East 476 548 37,000  Level Albuquerque Center
09:35PM 34.4794 -102.6772 97° East 480 552 37,000  Level Albuquerque Center
09:36PM 34.4622 -102.5183 97° East 481 554 37,000  Level Albuquerque Center
09:37PM 34.4431 -102.3256 97° East 481 554 37,000  Level Albuquerque Center
09:38PM 34.4247 -102.1675 98° East 480 552 37,000  Level Albuquerque Center
09:39PM 34.3978 -102.0100 102° East 480 552 37,000  Level Albuquerque Center
09:40PM 34.3683 -101.8550 103° East 478 550 37,000  Level Albuquerque Center
09:41PM 34.3389 -101.6989 103° East 479 551 37,000  Level Albuquerque Center
09:42PM 34.3100 -101.5425 103° East 478 550 37,000  Level Albuquerque Center
09:43PM 34.2803 -101.3872 103° East 478 550 37,000  Level Albuquerque Center
09:44PM 34.2506 -101.2325 103° East 477 549 37,000  Level Albuquerque Center
09:45PM 34.2133 -101.0467 104° East 477 549 37,000  Level Albuquerque Center
09:46PM 34.1781 -100.8578 103° East 474 545 37,000  Level Fort Worth Center
09:47PM 34.1467 -100.7008 104° East 474 545 37,000  Level Fort Worth Center
09:48PM 34.1175 -100.5417 102° East 474 545 37,000  Level Fort Worth Center
09:49PM 34.0933 -100.4206 104° East 474 545 37,000  Level Fort Worth Center
09:50PM 34.0600 -100.2439 103° East 474 545 37,000  Level Fort Worth Center
09:51PM 34.0258 -100.0875 105° East 474 545 37,000  Level Fort Worth Center
09:52PM 33.9956 -99.9336 103° East 474 545 37,000  Level Fort Worth Center
09:53PM 33.9611 -99.7700 104° East 474 545 37,000 -120 Level Fort Worth Center
09:54PM 33.9286 -99.6064 103° East 480 552 36,800 -1,200 Descending Fort Worth Center
09:55PM 33.8939 -99.4478 105° East 485 558 34,700 -2,280 Descending Fort Worth Center
09:56PM 33.8589 -99.2869 105° East 491 565 32,300 -2,460 Descending Fort Worth Center
09:57PM 33.8256 -99.1261 104° East 491 565 29,800 -2,280 Descending Fort Worth Center
09:58PM 33.7922 -98.9731 105° East 491 565 27,800 -1,620 Descending Fort Worth Center
09:59PM 33.7458 -98.8222 110° East 479 551 26,600 -1,200 Descending Fort Worth Center
10:00PM 33.7014 -98.6792 110° East 468 539 25,500 -1,560 Descending Fort Worth Center
10:01PM 33.6508 -98.5264 112° Southeast 457 526 23,500 -1,980 Descending Fort Worth Center
10:02PM 33.6103 -98.3911 110° East 439 505 21,600 -1,860 Descending Fort Worth Center
10:03PM 33.5756 -98.2711 109° East 424 488 19,800 -1,980 Descending Fort Worth Center
10:04PM 33.5325 -98.1336 111° Southeast 411 473 17,700 -1,920 Descending Fort Worth Center
10:05PM 33.4997 -98.0211 109° East 396 456 16,000 -1,860 Descending Fort Worth Center
10:06PM 33.4586 -97.8939 111° Southeast 380 437 14,000 -1,860 Descending Fort Worth Center
10:07PM 33.4278 -97.7917 110° East 370 426 12,300 -1,440 Descending Fort Worth Center
10:08PM 33.3925 -97.6747 110° East 351 404 11,200 -840 Descending Fort Worth Center
10:09PM 33.3500 -97.6167 131° Southeast 290 334 10,900 -1,020 Descending Dallas / Fort Worth TRACON
10:10PM 33.3167 -97.5333 116° Southeast 306 352 9,500 -1,380 Descending Dallas / Fort Worth TRACON
10:11PM 33.2833 -97.4167 109° East 289 333 7,900 -1,320 Descending Dallas / Fort Worth TRACON
10:12PM 33.2500 -97.3500 121° Southeast 282 325 6,900 -1,140 Descending Dallas / Fort Worth TRACON
10:13PM 33.2167 -97.2667 116° Southeast 251 289 5,700 -1,020 Descending Dallas / Fort Worth TRACON
10:14PM 33.1667 -97.2000 132° Southeast 234 269 4,800 -900 Descending Dallas / Fort Worth TRACON
10:15PM 33.1333 -97.1500 129° Southeast 215 247 4,000 -960 Descending Dallas / Fort Worth TRACON
10:16PM 33.0833 -97.1167 151° Southeast 201 231 3,000 -1,020 Descending Dallas / Fort Worth TRACON